createdAt,value
2024-03-01T00:00:33.264Z,2.60
2024-03-01T00:03:04.181Z,2.90
2024-03-01T00:05:32.830Z,2.63
2024-03-01T00:08:01.967Z,1.73
2024-03-01T00:10:32.546Z,2.23
2024-03-01T00:13:01.239Z,2.40
2024-03-01T00:15:30.783Z,1.87
2024-03-01T00:17:59.582Z,1.70
2024-03-01T00:20:28.225Z,2.33
2024-03-01T00:22:56.908Z,2.70
2024-03-01T00:25:25.702Z,2.37
2024-03-01T00:27:56.847Z,2.70
2024-03-01T00:30:25.785Z,1.90
2024-03-01T00:32:54.437Z,2.50
2024-03-01T00:35:23.488Z,2.00
2024-03-01T00:37:52.132Z,2.20
2024-03-01T00:40:20.941Z,2.57
2024-03-01T00:42:49.816Z,1.77
2024-03-01T00:45:20.012Z,2.07
2024-03-01T00:47:49.790Z,2.80
2024-03-01T00:50:22.145Z,2.00
2024-03-01T00:52:50.838Z,2.10
2024-03-01T00:55:18.617Z,2.33
2024-03-01T00:57:47.280Z,2.57
2024-03-01T01:00:16.745Z,2.70
2024-03-01T01:02:46.815Z,2.07
2024-03-01T01:05:15.540Z,2.47
2024-03-01T01:07:44.540Z,2.63
2024-03-01T01:10:13.260Z,2.87
2024-03-01T01:12:41.967Z,2.23
2024-03-01T01:15:14.093Z,2.17
2024-03-01T01:17:43.310Z,2.20
2024-03-01T01:20:14.386Z,1.67
2024-03-01T01:22:43.241Z,1.33
2024-03-01T01:25:12.019Z,1.60
2024-03-01T01:27:41.068Z,1.77
2024-03-01T01:30:11.021Z,3.33
2024-03-01T01:32:39.842Z,1.57
2024-03-01T01:35:09.327Z,2.03
2024-03-01T01:37:39.646Z,2.10
2024-03-01T01:40:10.370Z,2.13
2024-03-01T01:42:39.224Z,2.10
2024-03-01T01:45:10.178Z,2.03
2024-03-01T01:47:39.102Z,2.50
2024-03-01T01:50:08.521Z,1.80
2024-03-01T01:52:37.510Z,2.20
2024-03-01T01:55:08.340Z,1.80
2024-03-01T01:57:37.561Z,0.90
2024-03-01T02:00:08.365Z,1.93
2024-03-01T02:02:41.913Z,1.97
2024-03-01T02:05:10.721Z,1.47
2024-03-01T02:07:39.891Z,2.47
2024-03-01T02:10:17.911Z,1.40
2024-03-01T02:13:01.413Z,1.60
2024-03-01T02:15:31.104Z,2.47
2024-03-01T02:18:00.503Z,1.87
2024-03-01T02:20:30.904Z,2.00
2024-03-01T02:23:03.813Z,1.90
2024-03-01T02:25:32.919Z,1.87
2024-03-01T02:28:03.653Z,2.13
2024-03-01T02:30:32.449Z,2.20
2024-03-01T02:33:01.185Z,1.47
2024-03-01T02:35:29.849Z,2.33
2024-03-01T02:37:58.527Z,2.23
2024-03-01T02:40:27.149Z,2.53
2024-03-01T02:42:57.172Z,1.87
2024-03-01T02:45:25.920Z,1.93
2024-03-01T02:47:54.818Z,1.93
2024-03-01T02:50:23.437Z,2.20
2024-03-01T02:52:52.053Z,1.87
2024-03-01T02:55:22.253Z,2.60
2024-03-01T02:57:52.502Z,2.13
2024-03-01T03:00:23.030Z,1.83
2024-03-01T03:02:52.676Z,2.23
2024-03-01T03:05:21.722Z,2.00
2024-03-01T03:07:51.149Z,1.97
2024-03-01T03:10:20.046Z,2.40
2024-03-01T03:12:49.476Z,2.47
2024-03-01T03:15:18.653Z,2.27
2024-03-01T03:17:48.710Z,1.80
2024-03-01T03:20:19.479Z,1.93
2024-03-01T03:22:48.552Z,1.67
2024-03-01T03:25:17.391Z,2.17
2024-03-01T03:27:45.964Z,1.73
2024-03-01T03:30:14.865Z,1.53
2024-03-01T03:32:43.614Z,1.67
2024-03-01T03:35:13.849Z,1.57
2024-03-01T03:37:42.458Z,1.90
2024-03-01T03:40:15.552Z,1.30
2024-03-01T03:42:45.100Z,1.53
2024-03-01T03:45:13.936Z,1.60
2024-03-01T03:47:42.742Z,1.80
2024-03-01T03:50:13.223Z,1.97
2024-03-01T03:52:42.914Z,1.70
2024-03-01T03:55:12.042Z,2.27
2024-03-01T03:57:40.717Z,1.37
2024-03-01T04:00:11.261Z,1.30
2024-03-01T04:02:40.761Z,0.87
2024-03-01T04:05:09.820Z,0.70
2024-03-01T04:07:40.170Z,0.50
2024-03-01T04:10:10.509Z,0.30
2024-03-01T04:12:39.405Z,0.40
2024-03-01T04:15:09.852Z,0.70
2024-03-01T04:17:38.723Z,0.70
2024-03-01T04:20:09.227Z,0.77
2024-03-01T04:22:39.299Z,0.50
2024-03-01T04:25:08.208Z,0.40
2024-03-01T04:27:39.202Z,0.50
2024-03-01T04:30:10.537Z,0.40
2024-03-01T04:32:39.496Z,0.60
2024-03-01T04:35:08.526Z,0.47
2024-03-01T04:37:37.326Z,0.70
2024-03-01T04:40:10.245Z,0.20
2024-03-01T04:42:42.604Z,0.30
2024-03-01T04:45:11.722Z,0.40
2024-03-01T04:47:40.419Z,0.70
2024-03-01T04:50:10.204Z,0.50
2024-03-01T04:52:39.107Z,0.60
2024-03-01T04:55:10.839Z,0.30
2024-03-01T04:57:39.910Z,0.40
2024-03-01T05:00:13.420Z,0.50
2024-03-01T05:02:42.568Z,0.40
2024-03-01T05:05:11.999Z,0.67
2024-03-01T05:07:40.959Z,0.30
2024-03-01T05:10:12.193Z,0.40
2024-03-01T05:12:43.355Z,0.50
2024-03-01T05:15:13.660Z,0.50
2024-03-01T05:17:44.612Z,0.33
2024-03-01T05:20:15.824Z,0.30
2024-03-01T05:22:45.374Z,0.90
2024-03-01T05:25:19.099Z,0.50
2024-03-01T05:27:50.298Z,0.40
2024-03-01T05:30:32.709Z,0.20
2024-03-01T05:33:09.576Z,0.20
2024-03-01T05:35:38.385Z,0.30
2024-03-01T05:38:06.988Z,0.20
2024-03-01T05:40:46.398Z,0.30
2024-03-01T05:43:22.120Z,0.63
2024-03-01T05:45:51.326Z,0.80
2024-03-01T05:48:20.364Z,0.30
2024-03-01T05:50:48.911Z,0.50
2024-03-01T05:53:18.520Z,0.40
2024-03-01T05:55:48.802Z,0.43
2024-03-01T05:58:17.436Z,0.70
2024-03-01T06:00:46.995Z,0.37
2024-03-01T06:03:15.743Z,0.43
2024-03-01T06:05:44.287Z,0.63
2024-03-01T06:08:12.833Z,0.47
2024-03-01T06:10:41.510Z,0.70
2024-03-01T06:13:11.565Z,0.57
2024-03-01T06:15:40.207Z,0.30
2024-03-01T06:18:08.867Z,0.80
2024-03-01T06:20:37.557Z,0.40
2024-03-01T06:23:06.869Z,0.67
2024-03-01T06:25:35.534Z,0.87
2024-03-01T06:28:04.280Z,0.57
2024-03-01T06:30:34.221Z,0.50
2024-03-01T06:33:02.798Z,0.40
2024-03-01T06:35:32.186Z,0.67
2024-03-01T06:38:00.726Z,0.57
2024-03-01T06:40:29.600Z,0.87
2024-03-01T06:42:58.208Z,0.60
2024-03-01T06:45:26.781Z,1.03
2024-03-01T06:47:56.907Z,0.40
2024-03-01T06:50:25.560Z,0.67
2024-03-01T06:52:54.264Z,0.77
2024-03-01T06:55:23.159Z,0.97
2024-03-01T06:57:53.007Z,0.63
2024-03-01T07:00:21.846Z,0.60
2024-03-01T07:02:50.515Z,0.53
2024-03-01T07:05:20.519Z,1.03
2024-03-01T07:07:49.274Z,0.37
2024-03-01T07:10:17.964Z,0.60
2024-03-01T07:12:46.560Z,0.70
2024-03-01T07:15:17.031Z,0.70
2024-03-01T07:17:45.667Z,0.73
2024-03-01T07:20:14.710Z,0.60
2024-03-01T07:22:44.771Z,0.63
2024-03-01T07:25:13.567Z,0.53
2024-03-01T07:27:42.578Z,0.80
2024-03-01T07:30:12.436Z,0.90
2024-03-01T07:32:42.822Z,0.83
2024-03-01T07:35:11.550Z,1.10
2024-03-01T07:37:41.265Z,1.00
2024-03-01T07:40:12.922Z,0.87
2024-03-01T07:42:42.161Z,0.60
2024-03-01T07:45:11.734Z,0.63
2024-03-01T07:47:44.052Z,1.13
2024-03-01T07:50:12.695Z,1.80
2024-03-01T07:52:41.472Z,1.03
2024-03-01T07:55:12.945Z,1.37
2024-03-01T07:57:41.842Z,2.13
2024-03-01T08:00:12.966Z,2.10
2024-03-01T08:02:41.550Z,2.03
2024-03-01T08:05:11.542Z,1.93
2024-03-01T08:07:40.307Z,1.57
2024-03-01T08:10:15.865Z,1.43
2024-03-01T08:12:44.518Z,2.07
2024-03-01T08:15:24.178Z,2.33
2024-03-01T08:17:52.786Z,1.70
2024-03-01T08:20:43.650Z,1.80
2024-03-01T08:23:13.989Z,1.83
2024-03-01T08:25:44.014Z,2.00
2024-03-01T08:28:13.044Z,1.30
2024-03-01T08:30:45.429Z,1.90
2024-03-01T08:33:17.988Z,1.47
2024-03-01T08:35:47.680Z,2.67
2024-03-01T08:39:06.948Z,2.47
2024-03-01T08:41:37.127Z,3.07
2024-03-01T08:44:24.510Z,3.10
2024-03-01T08:46:53.248Z,4.27
2024-03-01T08:50:03.613Z,2.73
2024-03-01T08:52:36.011Z,3.07
2024-03-01T08:55:41.974Z,2.60
2024-03-01T08:58:23.888Z,2.83
2024-03-01T09:00:54.790Z,2.97
2024-03-01T09:03:26.190Z,2.43
2024-03-01T09:05:56.949Z,2.03
2024-03-01T09:08:28.641Z,3.27
2024-03-01T09:10:58.712Z,2.73
2024-03-01T09:13:30.185Z,2.80
2024-03-01T09:15:59.665Z,2.43
2024-03-01T09:18:43.021Z,2.20
2024-03-01T09:21:40.002Z,2.97
2024-03-01T09:24:09.575Z,2.53
2024-03-01T09:26:38.180Z,2.10
2024-03-01T09:29:08.488Z,1.70
2024-03-01T09:31:37.233Z,1.80
2024-03-01T09:34:11.860Z,1.97
2024-03-01T09:36:40.479Z,2.63
2024-03-01T09:39:12.834Z,1.83
2024-03-01T09:41:52.002Z,1.87
2024-03-01T09:44:31.780Z,2.67
2024-03-01T09:47:12.748Z,1.27
2024-03-01T09:49:47.484Z,2.67
2024-03-01T09:52:25.512Z,1.13
2024-03-01T09:55:06.065Z,2.13
2024-03-01T09:57:42.915Z,1.63
2024-03-01T10:00:19.908Z,1.60
2024-03-01T10:02:56.744Z,2.03
2024-03-01T10:05:40.528Z,2.87
2024-03-01T10:08:20.087Z,1.87
2024-03-01T10:10:57.321Z,1.97
2024-03-01T10:13:34.281Z,1.43
2024-03-01T10:16:17.044Z,2.00
2024-03-01T10:19:03.319Z,2.23
2024-03-01T10:21:44.162Z,1.17
2024-03-01T10:24:28.769Z,2.47
2024-03-01T10:27:04.366Z,1.37
2024-03-01T10:29:48.744Z,1.47
2024-03-01T10:32:31.349Z,1.57
2024-03-01T10:35:03.955Z,1.20
2024-03-01T10:37:41.105Z,1.30
2024-03-01T10:40:19.431Z,1.40
2024-03-01T10:42:56.019Z,1.60
2024-03-01T10:45:35.393Z,1.40
2024-03-01T10:48:06.472Z,1.60
2024-03-01T10:50:36.990Z,1.97
2024-03-01T10:53:09.144Z,1.63
2024-03-01T10:55:43.076Z,1.83
2024-03-01T10:58:17.873Z,1.50
2024-03-01T11:00:57.162Z,1.73
2024-03-01T11:03:36.190Z,2.23
2024-03-01T11:06:17.666Z,1.90
2024-03-01T11:08:53.893Z,1.43
2024-03-01T11:11:27.338Z,1.20
2024-03-01T11:13:59.627Z,1.10
2024-03-01T11:16:33.329Z,1.57
2024-03-01T11:19:08.950Z,1.97
2024-03-01T11:21:40.998Z,1.50
2024-03-01T11:24:16.879Z,0.97
2024-03-01T11:26:46.258Z,1.20
2024-03-01T11:29:24.835Z,1.83
2024-03-01T11:31:56.820Z,1.20
2024-03-01T11:34:35.567Z,1.57
2024-03-01T11:37:12.638Z,1.50
2024-03-01T11:39:51.800Z,1.27
2024-03-01T11:42:31.053Z,1.00
2024-03-01T11:45:08.414Z,1.07
2024-03-01T11:47:51.983Z,0.90
2024-03-01T11:50:39.728Z,0.90
2024-03-01T11:53:25.637Z,0.60
2024-03-01T11:56:28.982Z,0.70
2024-03-01T11:59:10.761Z,0.80
2024-03-01T12:01:49.544Z,0.53
2024-03-01T12:04:40.586Z,0.73
2024-03-01T12:07:26.607Z,0.77
2024-03-01T12:10:09.019Z,0.93
2024-03-01T12:12:44.969Z,0.60
2024-03-01T12:15:18.259Z,0.50
2024-03-01T12:18:04.242Z,0.70
2024-03-01T12:20:38.801Z,0.60
2024-03-01T12:23:25.916Z,0.80
2024-03-01T12:25:54.823Z,0.87
2024-03-01T12:28:45.736Z,0.83
2024-03-01T12:31:26.484Z,1.07
2024-03-01T12:34:16.303Z,0.63
2024-03-01T12:36:55.037Z,0.83
2024-03-01T12:39:28.833Z,0.40
2024-03-01T12:42:07.035Z,0.60
2024-03-01T12:44:47.090Z,0.60
2024-03-01T12:48:01.821Z,0.63
2024-03-01T12:50:40.489Z,0.53
2024-03-01T12:53:50.814Z,0.80
2024-03-01T12:56:32.218Z,0.70
2024-03-01T12:59:25.841Z,0.83
2024-03-01T13:02:19.923Z,0.90
2024-03-01T13:04:58.167Z,0.47
2024-03-01T13:07:27.707Z,0.40
2024-03-01T13:10:00.953Z,0.40
2024-03-01T13:12:35.394Z,0.70
2024-03-01T13:15:15.398Z,0.40
2024-03-01T13:17:50.436Z,1.17
2024-03-01T13:20:30.607Z,0.87
2024-03-01T13:23:17.027Z,0.50
2024-03-01T13:25:56.915Z,0.70
2024-03-01T13:28:30.398Z,0.80
2024-03-01T13:31:03.038Z,0.80
2024-03-01T13:33:39.980Z,0.53
2024-03-01T13:36:14.424Z,0.50
2024-03-01T13:39:06.671Z,0.93
2024-03-01T13:41:39.425Z,0.33
2024-03-01T13:44:28.528Z,0.60
2024-03-01T13:47:04.698Z,0.30
2024-03-01T13:49:39.397Z,0.37
2024-03-01T13:52:12.437Z,0.73
2024-03-01T13:54:41.236Z,0.60
2024-03-01T13:57:12.441Z,0.60
2024-03-01T13:59:44.227Z,0.50
2024-03-01T14:02:12.981Z,0.60
2024-03-01T14:04:43.100Z,0.33
2024-03-01T14:07:15.919Z,0.30
2024-03-01T14:09:48.926Z,0.33
2024-03-01T14:12:17.640Z,0.43
2024-03-01T14:14:48.223Z,0.50
2024-03-01T14:17:19.152Z,0.40
2024-03-01T14:19:47.877Z,0.30
2024-03-01T14:22:19.084Z,0.67
2024-03-01T14:24:47.840Z,0.70
2024-03-01T14:27:16.402Z,0.60
2024-03-01T14:29:45.114Z,0.20
2024-03-01T14:32:15.981Z,0.27
2024-03-01T14:34:44.656Z,0.50
2024-03-01T14:37:13.344Z,0.27
2024-03-01T14:39:44.251Z,0.03
2024-03-01T14:42:20.226Z,0.43
2024-03-01T14:44:54.907Z,0.30
2024-03-01T14:47:28.406Z,0.30
2024-03-01T14:49:57.751Z,0.97
2024-03-01T14:52:26.624Z,0.30
2024-03-01T14:54:55.421Z,0.37
2024-03-01T14:57:24.029Z,0.17
2024-03-01T14:59:52.671Z,0.30
2024-03-01T15:02:21.369Z,0.67
2024-03-01T15:04:53.070Z,0.20
2024-03-01T15:07:21.783Z,0.40
2024-03-01T15:09:50.908Z,0.40
2024-03-01T15:12:19.501Z,0.20
2024-03-01T15:14:48.072Z,0.50
2024-03-01T15:17:19.975Z,0.23
2024-03-01T15:19:53.322Z,0.30
2024-03-01T15:22:21.870Z,0.20
2024-03-01T15:24:52.836Z,0.47
2024-03-01T15:27:27.275Z,0.40
2024-03-01T15:29:56.295Z,0.33
2024-03-01T15:32:24.903Z,0.40
2024-03-01T15:34:55.537Z,0.50
2024-03-01T15:37:24.340Z,0.40
2024-03-01T15:39:53.061Z,0.63
2024-03-01T15:42:21.686Z,0.40
2024-03-01T15:44:50.307Z,0.43
2024-03-01T15:47:18.900Z,0.20
2024-03-01T15:49:47.483Z,0.50
2024-03-01T15:52:17.596Z,1.10
2024-03-01T15:54:46.453Z,0.47
2024-03-01T15:57:15.259Z,0.50
2024-03-01T15:59:43.845Z,0.50
2024-03-01T16:02:12.911Z,0.50
2024-03-01T16:04:44.141Z,0.30
2024-03-01T16:07:14.077Z,0.30
2024-03-01T16:09:44.188Z,0.40
2024-03-01T16:12:12.976Z,0.57
2024-03-01T16:14:49.993Z,0.20
2024-03-01T16:17:22.563Z,0.20
2024-03-01T16:19:51.807Z,0.30
2024-03-01T16:22:20.579Z,0.40
2024-03-01T16:24:51.860Z,0.40
2024-03-01T16:27:20.517Z,0.57
2024-03-01T16:29:49.327Z,0.70
2024-03-01T16:32:28.665Z,0.33
2024-03-01T16:34:57.263Z,0.70
2024-03-01T16:37:29.018Z,0.40
2024-03-01T16:39:58.975Z,0.87
2024-03-01T16:42:41.850Z,0.40
2024-03-01T16:45:16.114Z,0.80
2024-03-01T16:47:44.910Z,0.50
2024-03-01T16:50:14.394Z,0.63
2024-03-01T16:52:45.602Z,0.40
2024-03-01T16:55:44.446Z,1.00
2024-03-01T16:58:13.543Z,0.70
2024-03-01T17:00:42.350Z,1.17
2024-03-01T17:03:22.691Z,0.87
2024-03-01T17:05:52.852Z,0.70
2024-03-01T17:08:36.064Z,0.83
2024-03-01T17:11:07.859Z,0.40
2024-03-01T17:13:36.660Z,0.67
2024-03-01T17:16:10.090Z,0.37
2024-03-01T17:18:39.308Z,0.40
2024-03-01T17:21:07.842Z,0.70
2024-03-01T17:23:36.416Z,1.07
2024-03-01T17:26:06.450Z,1.17
2024-03-01T17:28:35.107Z,0.50
2024-03-01T17:31:03.918Z,0.70
2024-03-01T17:33:32.561Z,0.70
2024-03-01T17:36:01.153Z,1.20
2024-03-01T17:38:29.688Z,0.60
2024-03-01T17:40:59.255Z,0.90
2024-03-01T17:43:29.185Z,0.60
2024-03-01T17:45:57.755Z,0.40
2024-03-01T17:48:26.297Z,0.47
2024-03-01T17:50:55.134Z,0.60
2024-03-01T17:53:23.706Z,0.60
2024-03-01T17:55:52.525Z,0.60
2024-03-01T17:58:21.464Z,0.67
2024-03-01T18:00:51.453Z,0.43
2024-03-01T18:03:20.051Z,0.77
2024-03-01T18:05:49.101Z,0.37
2024-03-01T18:08:17.712Z,0.60
2024-03-01T18:10:46.270Z,0.37
2024-03-01T18:13:15.853Z,1.00
2024-03-01T18:15:44.493Z,0.63
2024-03-01T18:18:14.613Z,0.40
2024-03-01T18:20:43.229Z,0.63
2024-03-01T18:23:11.895Z,0.70
2024-03-01T18:25:40.527Z,0.33
2024-03-01T18:28:09.287Z,0.40
2024-03-01T18:30:37.965Z,0.53
2024-03-01T18:33:07.007Z,0.30
2024-03-01T18:35:36.976Z,0.50
2024-03-01T18:38:06.097Z,0.57
2024-03-01T18:40:34.892Z,0.43
2024-03-01T18:43:03.556Z,0.20
2024-03-01T18:45:32.125Z,0.40
2024-03-01T18:48:01.726Z,0.30
2024-03-01T18:50:30.627Z,0.40
2024-03-01T18:53:02.360Z,0.50
2024-03-01T18:55:30.983Z,0.47
2024-03-01T18:57:59.624Z,0.37
2024-03-01T19:00:33.029Z,0.37
2024-03-01T19:03:03.416Z,0.60
2024-03-01T19:05:32.117Z,0.43
2024-03-01T19:08:02.098Z,0.30
2024-03-01T19:10:31.175Z,0.37
2024-03-01T19:13:00.421Z,0.47
2024-03-01T19:15:30.405Z,0.47
2024-03-01T19:18:00.847Z,0.33
2024-03-01T19:20:31.368Z,0.63
2024-03-01T19:23:01.476Z,0.30
2024-03-01T19:25:30.360Z,0.80
2024-03-01T19:27:59.381Z,0.40
2024-03-01T19:30:28.533Z,0.80
2024-03-01T19:32:57.175Z,0.40
2024-03-01T19:35:25.890Z,0.60
2024-03-01T19:37:54.511Z,1.07
2024-03-01T19:40:24.832Z,0.50
2024-03-01T19:42:53.395Z,0.30
2024-03-01T19:45:22.007Z,0.57
2024-03-01T19:47:50.678Z,0.60
2024-03-01T19:50:19.311Z,0.50
2024-03-01T19:52:47.908Z,0.40
2024-03-01T19:55:16.638Z,0.37
2024-03-01T19:57:46.663Z,0.53
2024-03-01T20:00:17.634Z,0.40
2024-03-01T20:02:46.295Z,0.60
2024-03-01T20:05:15.968Z,0.50
2024-03-01T20:07:44.550Z,0.73
2024-03-01T20:10:13.210Z,0.50
2024-03-01T20:12:41.790Z,0.50
2024-03-01T20:15:13.953Z,0.53
2024-03-01T20:17:47.117Z,0.50
2024-03-01T20:20:15.986Z,0.80
2024-03-01T20:22:44.542Z,0.53
2024-03-01T20:25:13.505Z,0.77
2024-03-01T20:27:42.259Z,0.23
2024-03-01T20:30:13.248Z,0.80
2024-03-01T20:32:41.797Z,0.60
2024-03-01T20:35:10.460Z,0.40
2024-03-01T20:37:40.272Z,0.87
2024-03-01T20:40:10.565Z,0.33
2024-03-01T20:42:39.978Z,0.63
2024-03-01T20:45:10.415Z,0.50
2024-03-01T20:47:40.635Z,0.20
2024-03-01T20:50:11.261Z,0.50
2024-03-01T20:52:39.977Z,0.47
2024-03-01T20:55:09.304Z,1.03
2024-03-01T20:57:38.504Z,0.60
2024-03-01T21:00:10.046Z,0.57
2024-03-01T21:02:40.177Z,0.93
2024-03-01T21:05:10.457Z,1.07
2024-03-01T21:07:39.542Z,0.60
2024-03-01T21:10:09.460Z,0.97
2024-03-01T21:12:39.509Z,1.10
2024-03-01T21:15:10.644Z,0.50
2024-03-01T21:17:40.985Z,1.00
2024-03-01T21:20:10.383Z,0.63
2024-03-01T21:25:12.575Z,0.80
2024-03-01T21:27:42.458Z,0.53
2024-03-01T21:30:12.593Z,0.50
2024-03-01T21:32:42.725Z,0.50
2024-03-01T21:35:11.418Z,0.87
2024-03-01T21:37:40.049Z,0.50
2024-03-01T21:40:12.696Z,0.90
2024-03-01T21:42:41.384Z,0.70
2024-03-01T21:45:10.971Z,0.77
2024-03-01T21:47:39.774Z,0.30
2024-03-01T21:50:10.405Z,0.60
2024-03-01T21:52:39.359Z,0.90
2024-03-01T21:55:09.013Z,0.90
2024-03-01T21:57:37.785Z,0.50
2024-03-01T22:00:07.725Z,0.70
2024-03-01T22:02:36.734Z,0.40
2024-03-01T22:05:06.018Z,0.67
2024-03-01T22:07:37.237Z,0.70
2024-03-01T22:10:07.962Z,0.37
2024-03-01T22:12:36.946Z,0.20
2024-03-01T22:15:06.067Z,0.80
2024-03-01T22:17:34.642Z,0.90
2024-03-01T22:20:03.348Z,0.40
2024-03-01T22:22:31.968Z,0.70
2024-03-01T22:25:02.565Z,0.80
2024-03-01T22:27:34.170Z,0.60
2024-03-01T22:30:07.478Z,0.60
2024-03-01T22:32:36.448Z,0.60
2024-03-01T22:35:05.513Z,0.80
2024-03-01T22:37:34.567Z,0.50
2024-03-01T22:40:06.377Z,0.70
2024-03-01T22:42:36.732Z,0.70
2024-03-01T22:45:06.517Z,0.60
2024-03-01T22:47:35.392Z,0.60
2024-03-01T22:50:04.084Z,0.83
2024-03-01T22:52:33.976Z,0.53
2024-03-01T22:55:04.379Z,0.57
2024-03-01T22:57:38.336Z,0.53
2024-03-01T23:00:22.605Z,0.43
2024-03-01T23:02:54.685Z,0.40
2024-03-01T23:05:50.792Z,0.50
2024-03-01T23:08:48.548Z,0.40
2024-03-01T23:11:34.840Z,0.70
2024-03-01T23:14:04.282Z,0.50
2024-03-01T23:16:33.091Z,0.43
2024-03-01T23:19:01.881Z,0.30
2024-03-01T23:21:30.586Z,0.40
2024-03-01T23:23:59.540Z,0.60
2024-03-01T23:26:29.560Z,0.50
2024-03-01T23:28:58.395Z,0.50
2024-03-01T23:31:27.033Z,0.60
2024-03-01T23:33:55.922Z,0.30
2024-03-01T23:36:24.683Z,0.60
2024-03-01T23:38:53.326Z,0.60
2024-03-01T23:41:22.718Z,0.40
2024-03-01T23:43:52.691Z,0.40
2024-03-01T23:46:21.316Z,0.57
2024-03-01T23:48:50.068Z,0.50
2024-03-01T23:51:18.881Z,0.40
2024-03-01T23:53:49.613Z,0.33
2024-03-01T23:56:18.364Z,0.50
2024-03-01T23:58:50.354Z,0.50
